Time;durP1;ratioP1;P1;durP2;ratioP2;P2;SDS_P1;SDS_P2;PMS_P1;PMS_P2;Temp;Humidity;BMP_temperature;BMP_pressure;BME280_temperature;BME280_humidity;BME280_pressure;Samples;Min_cycle;Max_cycle;Signal;HPM_P1;HPM_P2
2023/11/04 05:01:21;;;;;;;3.60;1.30;;;6.40;99.90;;;;;;5400781;23;20279;-73
2023/11/04 05:03:48;;;;;;;0.93;0.90;;;6.40;99.90;;;;;;4854147;29;20295;-74
2023/11/04 05:06:15;;;;;;;4.47;1.20;;;6.40;99.90;;;;;;4854963;29;20213;-74
2023/11/04 05:08:42;;;;;;;5.22;2.15;;;6.40;99.90;;;;;;4849388;29;20213;-73
2023/11/04 05:11:09;;;;;;;1.70;1.02;;;6.30;99.90;;;;;;4855759;29;20233;-73
2023/11/04 05:13:36;;;;;;;1.13;1.13;;;6.30;99.90;;;;;;4856891;29;20240;-73
2023/11/04 05:16:03;;;;;;;1.60;1.00;;;6.30;99.90;;;;;;4877208;23;20232;-73
2023/11/04 05:18:31;;;;;;;1.33;1.30;;;6.30;99.90;;;;;;4854703;29;20209;-73
2023/11/04 05:21:01;;;;;;;0.77;0.77;;;6.30;99.90;;;;;;4855158;29;20213;-73
2023/11/04 05:23:28;;;;;;;1.63;1.52;;;6.20;99.90;;;;;;4856192;29;20236;-73
2023/11/04 05:25:55;;;;;;;1.63;1.17;;;6.20;99.90;;;;;;4858534;29;20240;-73
2023/11/04 05:28:22;;;;;;;1.13;1.13;;;6.20;99.90;;;;;;4859304;29;20216;-73
2023/11/04 05:30:49;;;;;;;1.05;0.90;;;6.20;99.90;;;;;;4858795;29;20220;-73
2023/11/04 05:33:16;;;;;;;0.98;0.98;;;6.10;99.90;;;;;;4858082;29;20228;-73
2023/11/04 05:35:44;;;;;;;3.60;1.00;;;6.20;99.90;;;;;;4851967;29;20260;-73
2023/11/04 05:38:11;;;;;;;3.75;2.80;;;6.20;99.90;;;;;;4859951;29;20215;-73
2023/11/04 05:40:38;;;;;;;2.42;1.65;;;6.10;99.90;;;;;;4856916;29;20682;-74
2023/11/04 05:43:05;;;;;;;2.63;1.25;;;6.10;99.90;;;;;;4859362;29;20212;-74
2023/11/04 05:45:32;;;;;;;59.05;27.98;;;6.10;99.90;;;;;;4855410;29;20368;-74
2023/11/04 05:47:59;;;;;;;21.30;11.82;;;6.10;99.90;;;;;;4847981;29;20569;-74
2023/11/04 05:50:25;;;;;;;65.55;25.23;;;6.10;99.90;;;;;;4849353;29;20212;-74
2023/11/04 05:52:54;;;;;;;9.32;6.47;;;6.00;99.90;;;;;;4858745;29;20213;-74
2023/11/04 05:55:20;;;;;;;83.75;55.67;;;6.00;99.90;;;;;;4858424;29;20239;-74
2023/11/04 05:57:47;;;;;;;13.32;8.70;;;6.00;99.90;;;;;;4857789;29;20251;-74
2023/11/04 06:00:15;;;;;;;17.05;9.98;;;6.00;99.90;;;;;;4851184;29;20766;-74
2023/11/04 06:02:42;;;;;;;29.60;20.85;;;5.90;99.90;;;;;;4851630;29;20668;-74
2023/11/04 06:05:10;;;;;;;5.15;4.30;;;6.00;99.90;;;;;;4858706;29;20216;-74
2023/11/04 06:07:37;;;;;;;22.38;16.70;;;5.90;99.90;;;;;;4857679;29;20204;-74
2023/11/04 06:10:08;;;;;;;4.72;4.32;;;5.90;99.90;;;;;;4858125;29;20221;-74
2023/11/04 06:12:35;;;;;;;7.00;4.30;;;5.90;99.90;;;;;;4858006;29;20213;-74
2023/11/04 06:15:01;;;;;;;2.28;1.58;;;5.90;99.90;;;;;;4852785;29;20610;-73
2023/11/04 06:17:28;;;;;;;20.30;10.25;;;5.90;99.90;;;;;;4849410;29;20217;-74
2023/11/04 06:19:57;;;;;;;8.52;5.38;;;5.80;99.90;;;;;;4857933;29;20688;-74
2023/11/04 06:22:23;;;;;;;4.88;3.75;;;5.80;99.90;;;;;;4858183;29;20220;-73
2023/11/04 06:24:52;;;;;;;3.38;2.45;;;5.80;99.90;;;;;;4857207;29;20209;-74
2023/11/04 06:27:20;;;;;;;6.82;3.80;;;5.70;99.90;;;;;;4852769;29;20233;-74
2023/11/04 06:29:47;;;;;;;11.23;6.22;;;5.70;99.90;;;;;;4847758;29;20209;-74
2023/11/04 06:32:14;;;;;;;1.80;1.17;;;5.70;99.90;;;;;;4853843;29;20223;-73
2023/11/04 06:34:41;;;;;;;10.68;3.83;;;5.70;99.90;;;;;;4855732;29;20240;-73
2023/11/04 06:37:08;;;;;;;1.85;1.75;;;5.70;99.90;;;;;;4856342;29;20347;-73
2023/11/04 06:39:35;;;;;;;1.88;1.80;;;5.70;99.90;;;;;;4857376;29;20708;-73
2023/11/04 06:42:02;;;;;;;1.45;1.40;;;5.70;99.90;;;;;;4851635;29;20830;-73
2023/11/04 06:44:30;;;;;;;8.88;3.80;;;5.70;99.90;;;;;;4848725;29;20217;-73
2023/11/04 06:46:56;;;;;;;2.55;2.35;;;5.70;99.90;;;;;;4851899;29;20281;-73
2023/11/04 06:49:23;;;;;;;4.88;2.50;;;5.70;99.90;;;;;;4843165;29;20213;-73
2023/11/04 06:51:50;;;;;;;3.65;2.95;;;5.70;99.90;;;;;;4855999;29;20218;-73
2023/11/04 06:54:17;;;;;;;10.50;6.10;;;5.70;99.90;;;;;;4857541;29;20323;-73
2023/11/04 06:56:43;;;;;;;15.32;4.20;;;5.70;99.90;;;;;;4857355;29;20254;-73
2023/11/04 06:59:10;;;;;;;3.30;2.63;;;5.80;99.90;;;;;;4856621;29;20244;-73
2023/11/04 07:01:38;;;;;;;3.05;2.55;;;5.90;99.90;;;;;;4854823;29;20212;-73
2023/11/04 07:04:06;;;;;;;6.55;3.38;;;5.90;99.90;;;;;;4847971;29;20217;-73
2023/11/04 07:06:33;;;;;;;3.80;2.40;;;6.00;99.90;;;;;;4855680;29;20339;-73
2023/11/04 07:09:00;;;;;;;4.18;3.75;;;6.00;99.90;;;;;;4847331;29;20244;-73
2023/11/04 07:11:27;;;;;;;3.08;2.67;;;6.10;99.90;;;;;;4850953;29;20208;-73
2023/11/04 07:13:54;;;;;;;3.90;3.30;;;6.10;99.90;;;;;;4848421;29;20612;-71
2023/11/04 07:16:20;;;;;;;4.88;3.65;;;6.20;99.90;;;;;;4851040;29;20249;-71
2023/11/04 07:18:49;;;;;;;4.00;1.38;;;6.30;99.90;;;;;;4846480;29;20220;-70
2023/11/04 07:21:15;;;;;;;3.45;3.15;;;6.40;99.90;;;;;;4845703;29;20217;-71
2023/11/04 07:23:42;;;;;;;4.50;2.33;;;6.40;99.90;;;;;;4840863;29;20224;-71
2023/11/04 07:26:09;;;;;;;4.10;1.30;;;6.50;99.90;;;;;;4855179;29;20237;-71
2023/11/04 07:28:36;;;;;;;4.53;4.18;;;6.50;99.90;;;;;;4853826;29;20217;-71
2023/11/04 07:31:03;;;;;;;2.78;1.85;;;6.50;99.90;;;;;;4848710;29;20212;-71
2023/11/04 07:33:31;;;;;;;7.10;2.75;;;6.60;99.90;;;;;;4854104;29;20237;-73
2023/11/04 07:35:59;;;;;;;8.52;7.70;;;6.60;99.90;;;;;;4851382;29;20229;-72
2023/11/04 07:38:25;;;;;;;15.40;13.57;;;6.70;99.90;;;;;;4850138;29;20221;-72
2023/11/04 07:40:52;;;;;;;4.53;4.15;;;6.80;99.90;;;;;;4841770;29;20228;-72
2023/11/04 07:43:19;;;;;;;8.68;6.57;;;6.80;99.90;;;;;;4848211;29;20216;-72
2023/11/04 07:45:46;;;;;;;4.28;3.65;;;6.90;99.90;;;;;;4849681;29;20243;-72
2023/11/04 07:48:13;;;;;;;6.22;5.72;;;7.00;99.90;;;;;;4847405;29;20631;-72
2023/11/04 07:50:40;;;;;;;4.53;4.07;;;7.10;99.90;;;;;;4850165;29;20200;-72
2023/11/04 07:53:09;;;;;;;7.38;6.65;;;7.20;99.90;;;;;;4848728;29;20277;-72
2023/11/04 07:55:37;;;;;;;3.25;2.42;;;7.30;99.90;;;;;;4848697;29;20240;-72
2023/11/04 07:58:04;;;;;;;2.72;2.33;;;7.50;99.90;;;;;;4848721;29;20212;-72
2023/11/04 08:00:31;;;;;;;4.07;3.78;;;7.60;99.90;;;;;;4856571;29;20267;-72
2023/11/04 08:02:58;;;;;;;1.80;1.70;;;7.70;99.90;;;;;;4849921;29;20582;-72
2023/11/04 08:05:23;;;;;;;2.47;2.42;;;7.80;99.90;;;;;;4846766;29;20232;-72
2023/11/04 08:07:50;;;;;;;4.17;3.77;;;7.80;99.90;;;;;;4850498;29;20271;-72
2023/11/04 08:10:18;;;;;;;43.70;15.52;;;7.90;99.90;;;;;;4849227;29;20221;-72
2023/11/04 08:12:45;;;;;;;20.80;8.70;;;8.00;99.90;;;;;;4848503;29;20614;-72
2023/11/04 08:15:12;;;;;;;13.70;8.20;;;8.10;99.90;;;;;;4854957;29;20225;-73
2023/11/04 08:17:39;;;;;;;6.45;5.57;;;8.20;99.90;;;;;;4849034;29;20212;-72
2023/11/04 08:20:09;;;;;;;2.78;2.67;;;8.30;99.90;;;;;;4849903;29;20216;-72
2023/11/04 08:22:38;;;;;;;6.18;5.68;;;8.30;99.90;;;;;;4854123;29;20223;-72
2023/11/04 08:25:06;;;;;;;3.40;3.20;;;8.40;99.90;;;;;;4856306;29;20209;-72
2023/11/04 08:27:34;;;;;;;7.22;5.55;;;8.40;99.90;;;;;;4858332;29;20613;-72
2023/11/04 08:30:03;;;;;;;4.38;2.28;;;8.50;99.90;;;;;;4856133;29;20221;-72
2023/11/04 08:32:30;;;;;;;5.38;3.95;;;8.50;99.90;;;;;;4856202;29;20215;-72
2023/11/04 08:34:58;;;;;;;9.60;5.85;;;8.50;99.90;;;;;;4845974;29;20230;-72
2023/11/04 08:37:25;;;;;;;13.48;8.52;;;8.80;99.90;;;;;;4850158;29;20232;-72
2023/11/04 08:39:52;;;;;;;8.10;6.20;;;8.90;99.90;;;;;;4845877;29;20726;-71
2023/11/04 08:42:19;;;;;;;9.60;6.22;;;9.00;99.90;;;;;;4847575;29;20217;-72
2023/11/04 08:44:48;;;;;;;16.67;8.10;;;9.10;99.90;;;;;;4855156;29;20219;-73
2023/11/04 08:47:14;;;;;;;7.57;5.63;;;9.20;99.90;;;;;;4850242;29;20319;-73
2023/11/04 08:49:41;;;;;;;3.83;2.85;;;9.20;99.90;;;;;;4844417;29;20223;-71
2023/11/04 08:52:08;;;;;;;7.82;5.68;;;9.00;99.90;;;;;;4848381;29;20589;-71
2023/11/04 08:54:35;;;;;;;4.78;4.00;;;8.90;99.90;;;;;;4855796;29;20232;-72
2023/11/04 08:57:02;;;;;;;9.45;4.55;;;8.90;99.90;;;;;;4852067;29;20625;-72
2023/11/04 08:59:29;;;;;;;5.18;3.70;;;8.90;99.90;;;;;;4846070;29;20227;-72
2023/11/04 09:01:58;;;;;;;1.88;1.33;;;9.00;99.90;;;;;;4858650;29;20492;-72
2023/11/04 09:04:24;;;;;;;2.88;2.65;;;9.00;99.90;;;;;;4857246;29;20266;-72
2023/11/04 09:06:51;;;;;;;7.72;4.25;;;9.10;99.90;;;;;;4852646;29;20301;-72
2023/11/04 09:09:19;;;;;;;5.93;4.20;;;9.20;99.90;;;;;;4857399;29;20646;-71
2023/11/04 09:11:45;;;;;;;2.92;2.67;;;9.30;99.90;;;;;;4851803;29;20710;-72
2023/11/04 09:14:12;;;;;;;4.13;2.38;;;9.30;99.90;;;;;;4845176;29;20231;-72
2023/11/04 09:16:39;;;;;;;2.30;2.08;;;9.30;99.90;;;;;;4854302;29;20258;-72
2023/11/04 09:19:09;;;;;;;2.22;2.10;;;9.30;99.90;;;;;;4850472;29;20212;-73
2023/11/04 09:21:36;;;;;;;1.75;1.73;;;9.30;99.90;;;;;;4850595;29;20218;-74
2023/11/04 09:24:03;;;;;;;1.27;1.27;;;9.40;99.90;;;;;;4846904;29;20237;-72
2023/11/04 09:26:30;;;;;;;1.23;1.20;;;9.50;99.90;;;;;;4857371;29;20237;-72
2023/11/04 09:28:58;;;;;;;1.38;1.20;;;9.60;99.90;;;;;;4859637;29;20245;-73
2023/11/04 09:31:25;;;;;;;1.08;1.08;;;9.60;99.90;;;;;;4849456;29;20279;-73
2023/11/04 09:33:52;;;;;;;1.10;0.98;;;9.70;99.90;;;;;;4859263;29;20208;-74
2023/11/04 09:36:20;;;;;;;0.88;0.88;;;9.70;99.90;;;;;;4853952;29;20236;-74
2023/11/04 09:38:47;;;;;;;1.95;1.48;;;9.80;99.90;;;;;;4845741;29;20221;-73
2023/11/04 09:41:14;;;;;;;1.20;1.20;;;9.90;99.90;;;;;;4856868;29;20666;-74
2023/11/04 09:43:42;;;;;;;1.23;1.23;;;9.90;99.90;;;;;;4857095;29;20213;-74
2023/11/04 09:46:09;;;;;;;1.42;1.27;;;10.00;99.90;;;;;;4854256;29;20228;-74
2023/11/04 09:48:37;;;;;;;1.23;1.20;;;10.00;99.90;;;;;;4851610;29;20215;-72
2023/11/04 09:51:10;;;;;;;0.63;0.63;;;10.10;99.90;;;;;;4851226;29;20211;-72
2023/11/04 09:53:43;;;;;;;1.55;1.40;;;10.10;99.90;;;;;;4855867;29;20244;-72
2023/11/04 09:56:10;;;;;;;0.93;0.93;;;10.10;99.90;;;;;;4857082;29;20231;-73
2023/11/04 09:58:39;;;;;;;1.10;1.10;;;10.20;99.90;;;;;;4857223;29;20219;-73
2023/11/04 10:01:06;;;;;;;1.70;1.50;;;10.20;99.90;;;;;;4858862;29;20588;-73
2023/11/04 10:03:33;;;;;;;1.02;1.02;;;10.30;99.90;;;;;;4855490;29;20220;-73
2023/11/04 10:06:00;;;;;;;2.00;0.85;;;10.30;99.90;;;;;;4858557;29;20302;-74
2023/11/04 10:08:27;;;;;;;0.93;0.93;;;10.40;99.90;;;;;;4858417;29;20688;-74
2023/11/04 10:10:55;;;;;;;1.38;1.27;;;10.40;99.90;;;;;;4858883;29;20276;-74
2023/11/04 10:13:22;;;;;;;0.88;0.88;;;10.40;99.90;;;;;;4857576;29;20207;-73
2023/11/04 10:15:48;;;;;;;0.75;0.75;;;10.50;99.90;;;;;;4857619;29;20676;-73
2023/11/04 10:18:16;;;;;;;1.25;0.70;;;10.50;99.90;;;;;;4858530;29;20227;-73
2023/11/04 10:20:43;;;;;;;1.00;1.00;;;10.50;99.90;;;;;;4856603;29;20272;-73
2023/11/04 10:23:10;;;;;;;1.20;1.20;;;10.40;99.90;;;;;;4858199;29;20211;-72
2023/11/04 10:25:36;;;;;;;1.20;1.08;;;10.50;99.90;;;;;;4854587;29;20497;-73
2023/11/04 10:28:05;;;;;;;0.70;0.70;;;10.70;99.90;;;;;;4857887;29;20226;-73
2023/11/04 10:30:32;;;;;;;1.10;0.73;;;10.80;99.90;;;;;;4858608;29;20219;-73
2023/11/04 10:33:07;;;;;;;1.20;0.90;;;10.90;99.90;;;;;;4858875;29;20701;-73
2023/11/04 10:35:35;;;;;;;1.05;1.05;;;10.90;99.90;;;;;;4858340;29;20247;-73
2023/11/04 10:38:05;;;;;;;0.43;0.43;;;11.00;99.90;;;;;;4857074;29;20226;-73
2023/11/04 10:40:33;;;;;;;1.05;1.05;;;11.00;99.90;;;;;;4856945;29;20269;-73
2023/11/04 10:43:05;;;;;;;1.02;1.02;;;11.00;99.90;;;;;;4853962;29;20298;-74
2023/11/04 10:45:40;;;;;;;0.60;0.60;;;11.00;99.90;;;;;;4854148;29;20235;-73
2023/11/04 10:48:17;;;;;;;0.90;0.90;;;11.00;99.90;;;;;;4856808;29;20223;-73
2023/11/04 10:50:49;;;;;;;0.50;0.50;;;11.10;99.90;;;;;;4855895;29;20283;-73
2023/11/04 10:53:39;;;;;;;0.60;0.60;;;11.10;99.90;;;;;;4855264;29;20207;-73
2023/11/04 10:56:11;;;;;;;0.90;0.90;;;11.10;99.90;;;;;;4858034;29;20235;-73
2023/11/04 10:58:46;;;;;;;0.65;0.65;;;11.10;99.90;;;;;;4855790;29;20231;-73
2023/11/04 11:01:17;;;;;;;0.90;0.90;;;11.10;99.90;;;;;;4856124;29;20231;-73
2023/11/04 11:03:46;;;;;;;1.15;0.82;;;11.10;99.90;;;;;;4853915;29;20286;-73
2023/11/04 11:06:14;;;;;;;0.85;0.60;;;11.10;99.90;;;;;;4855601;29;20228;-73
2023/11/04 11:08:42;;;;;;;0.85;0.85;;;11.20;99.90;;;;;;4855175;29;20687;-73
2023/11/04 11:11:17;;;;;;;1.65;0.90;;;11.20;99.90;;;;;;4856731;29;20693;-71
2023/11/04 11:13:46;;;;;;;0.57;0.57;;;11.20;99.90;;;;;;4855282;29;20250;-72
2023/11/04 11:16:14;;;;;;;0.70;0.70;;;11.20;99.90;;;;;;4873030;23;20731;-73
2023/11/04 11:18:41;;;;;;;1.90;0.70;;;11.30;99.90;;;;;;4858628;29;20294;-73
2023/11/04 11:21:09;;;;;;;2.25;0.93;;;11.30;99.90;;;;;;4854589;29;20440;-72
2023/11/04 11:23:36;;;;;;;0.93;0.70;;;11.40;99.90;;;;;;4855745;29;20307;-73
2023/11/04 11:26:04;;;;;;;0.90;0.90;;;11.40;99.90;;;;;;4856420;29;20221;-73
2023/11/04 11:28:35;;;;;;;0.50;0.50;;;11.40;99.90;;;;;;4858595;29;20469;-73
2023/11/04 11:31:01;;;;;;;0.70;0.70;;;11.50;99.90;;;;;;4856532;29;20471;-72
2023/11/04 11:33:31;;;;;;;0.60;0.57;;;11.50;99.90;;;;;;4858347;29;20211;-72
2023/11/04 11:35:59;;;;;;;4.13;0.70;;;11.60;99.90;;;;;;4855651;29;20250;-72
2023/11/04 11:38:26;;;;;;;0.60;0.60;;;11.60;99.90;;;;;;4853493;29;20289;-73
2023/11/04 11:40:53;;;;;;;0.63;0.63;;;11.60;99.90;;;;;;4853748;29;20473;-72
2023/11/04 11:43:20;;;;;;;0.60;0.60;;;11.60;99.90;;;;;;4853878;29;20849;-73
2023/11/04 11:45:47;;;;;;;0.73;0.60;;;11.60;99.90;;;;;;4853393;29;20518;-72
2023/11/04 11:48:14;;;;;;;0.60;0.60;;;11.70;99.90;;;;;;4854297;29;20472;-73
2023/11/04 11:50:43;;;;;;;0.63;0.63;;;11.70;99.90;;;;;;4856482;29;20473;-72
2023/11/04 11:53:10;;;;;;;0.60;0.60;;;11.80;99.90;;;;;;4853947;29;20473;-73
2023/11/04 11:55:38;;;;;;;0.80;0.80;;;12.00;99.90;;;;;;4858018;29;20488;-73
2023/11/04 11:58:05;;;;;;;1.50;0.70;;;12.00;99.90;;;;;;4856269;29;20477;-73
2023/11/04 12:00:32;;;;;;;0.80;0.80;;;12.10;99.90;;;;;;4854266;29;20493;-72
2023/11/04 12:02:59;;;;;;;0.53;0.53;;;12.30;99.90;;;;;;4854847;29;20484;-73
2023/11/04 12:05:25;;;;;;;0.40;0.40;;;12.30;99.90;;;;;;4856329;29;20469;-72
2023/11/04 12:07:54;;;;;;;0.67;0.67;;;12.30;99.90;;;;;;4857499;29;20473;-73
2023/11/04 12:10:22;;;;;;;0.60;0.60;;;12.20;99.90;;;;;;4858806;29;20476;-73
2023/11/04 12:12:50;;;;;;;0.70;0.70;;;12.20;99.90;;;;;;4855424;29;20828;-73
2023/11/04 12:15:16;;;;;;;2.10;0.80;;;12.10;99.90;;;;;;4856688;29;20492;-73
2023/11/04 12:17:54;;;;;;;0.97;0.97;;;12.00;99.90;;;;;;4855133;29;20500;-73
2023/11/04 12:20:26;;;;;;;0.67;0.67;;;12.00;99.90;;;;;;4858546;29;20476;-73
2023/11/04 12:22:55;;;;;;;0.40;0.40;;;12.00;99.90;;;;;;4858025;29;20469;-73
2023/11/04 12:25:22;;;;;;;0.60;0.60;;;12.00;99.90;;;;;;4855595;29;20522;-74
2023/11/04 12:27:50;;;;;;;0.60;0.60;;;11.90;99.90;;;;;;4856280;29;20499;-73
2023/11/04 12:30:17;;;;;;;2.33;0.60;;;11.90;99.90;;;;;;4856795;29;20478;-73
2023/11/04 12:32:46;;;;;;;0.57;0.57;;;11.80;99.90;;;;;;4858446;29;20845;-73
2023/11/04 12:35:13;;;;;;;0.97;0.80;;;11.80;99.90;;;;;;4855982;29;20493;-73
2023/11/04 12:37:40;;;;;;;0.70;0.70;;;11.80;99.90;;;;;;4853142;29;20502;-73
2023/11/04 12:40:10;;;;;;;0.97;0.90;;;11.80;99.90;;;;;;4857235;29;20494;-72
2023/11/04 12:42:37;;;;;;;1.00;1.00;;;11.80;99.90;;;;;;4853391;29;20488;-73
2023/11/04 12:45:07;;;;;;;0.60;0.60;;;11.80;99.90;;;;;;4859394;29;20475;-74
2023/11/04 12:47:36;;;;;;;0.73;0.73;;;11.90;99.90;;;;;;4857000;29;20538;-74
2023/11/04 12:50:03;;;;;;;0.60;0.60;;;12.00;99.90;;;;;;4849911;29;20481;-74
2023/11/04 12:52:30;;;;;;;0.80;0.80;;;12.00;99.90;;;;;;4859829;29;20469;-74
2023/11/04 12:54:57;;;;;;;2.97;0.87;;;12.00;99.90;;;;;;4855585;29;20839;-74
2023/11/04 12:57:26;;;;;;;0.93;0.93;;;12.00;99.90;;;;;;4853169;29;20496;-73
2023/11/04 12:59:54;;;;;;;1.60;0.60;;;12.00;99.90;;;;;;4859791;29;20472;-74
2023/11/04 13:02:21;;;;;;;0.60;0.60;;;11.90;99.90;;;;;;4859103;29;20492;-73
2023/11/04 13:04:48;;;;;;;0.67;0.67;;;11.90;99.90;;;;;;4852297;29;20475;-73
2023/11/04 13:07:15;;;;;;;0.80;0.80;;;11.90;99.90;;;;;;4849880;29;20516;-74
2023/11/04 13:09:42;;;;;;;3.90;0.70;;;11.90;99.90;;;;;;4850446;29;20462;-74
2023/11/04 13:12:09;;;;;;;0.60;0.60;;;11.80;99.90;;;;;;4855523;29;20213;-74
2023/11/04 13:14:37;;;;;;;0.47;0.40;;;11.70;99.90;;;;;;4853887;29;20499;-74
2023/11/04 13:17:05;;;;;;;0.50;0.50;;;11.70;99.90;;;;;;4853548;29;20500;-73
2023/11/04 13:19:31;;;;;;;0.40;0.40;;;11.60;99.90;;;;;;4855500;29;20477;-73
2023/11/04 13:21:59;;;;;;;1.57;0.60;;;11.50;99.90;;;;;;4850957;29;20563;-73
2023/11/04 13:24:26;;;;;;;0.47;0.47;;;11.50;99.90;;;;;;4851697;29;20495;-73
2023/11/04 13:26:52;;;;;;;0.45;0.45;;;11.40;99.90;;;;;;4859803;29;20861;-73
2023/11/04 13:29:19;;;;;;;0.63;0.63;;;11.40;99.90;;;;;;4857295;29;20223;-73
2023/11/04 13:31:47;;;;;;;0.90;0.90;;;11.40;99.90;;;;;;4848029;29;20308;-74
2023/11/04 13:34:14;;;;;;;1.15;0.93;;;11.30;99.90;;;;;;4860470;29;20297;-74
2023/11/04 13:36:41;;;;;;;0.77;0.77;;;11.40;99.90;;;;;;4852841;29;20235;-74
2023/11/04 13:39:08;;;;;;;1.65;0.88;;;11.40;99.90;;;;;;4854018;29;20228;-74
2023/11/04 13:41:37;;;;;;;0.60;0.60;;;11.40;99.90;;;;;;4855632;29;20233;-73
2023/11/04 13:44:04;;;;;;;0.70;0.70;;;11.40;99.90;;;;;;4854432;29;20590;-74
2023/11/04 13:46:31;;;;;;;0.50;0.50;;;11.50;99.90;;;;;;4854978;29;20953;-74
2023/11/04 13:49:01;;;;;;;0.85;0.85;;;11.40;99.90;;;;;;4855399;29;20223;-74
2023/11/04 13:51:28;;;;;;;0.43;0.43;;;11.40;99.90;;;;;;4857972;29;20211;-74
2023/11/04 13:53:55;;;;;;;1.00;0.65;;;11.50;99.90;;;;;;4860692;29;20215;-74
2023/11/04 13:56:22;;;;;;;0.50;0.50;;;11.60;99.90;;;;;;4855012;29;20501;-74
2023/11/04 13:58:49;;;;;;;1.13;1.13;;;11.60;99.90;;;;;;4856529;29;20634;-73
2023/11/04 14:01:16;;;;;;;0.40;0.40;;;11.70;99.90;;;;;;4855638;29;20218;-73
2023/11/04 14:03:43;;;;;;;0.70;0.70;;;11.70;99.90;;;;;;4858138;29;20472;-73
2023/11/04 14:06:12;;;;;;;0.73;0.73;;;11.60;99.90;;;;;;4853471;29;20482;-74
2023/11/04 14:08:39;;;;;;;0.68;0.68;;;11.50;99.90;;;;;;4852487;29;20479;-74
2023/11/04 14:11:06;;;;;;;0.50;0.50;;;11.50;99.90;;;;;;4851104;29;20222;-74
2023/11/04 14:13:33;;;;;;;0.40;0.40;;;11.50;99.90;;;;;;4857633;29;20243;-72
2023/11/04 14:16:00;;;;;;;0.57;0.57;;;11.40;99.90;;;;;;4850925;29;20237;-72
2023/11/04 14:18:27;;;;;;;0.57;0.57;;;11.40;99.90;;;;;;4856018;29;20208;-73
2023/11/04 14:20:53;;;;;;;0.52;0.52;;;11.30;99.90;;;;;;4862730;29;20244;-73
2023/11/04 14:23:21;;;;;;;0.43;0.30;;;11.30;99.90;;;;;;4857188;29;20212;-72
2023/11/04 14:25:48;;;;;;;0.50;0.50;;;11.30;99.90;;;;;;4859386;29;20613;-73
2023/11/04 14:28:15;;;;;;;0.40;0.40;;;11.30;99.90;;;;;;4857805;29;20219;-73
2023/11/04 14:30:42;;;;;;;1.00;0.40;;;11.30;99.90;;;;;;4861152;29;20310;-72
2023/11/04 14:33:09;;;;;;;0.73;0.50;;;11.30;99.90;;;;;;4858110;29;20232;-73
2023/11/04 14:35:36;;;;;;;0.38;0.38;;;11.30;99.90;;;;;;4849568;29;20593;-73
2023/11/04 14:38:02;;;;;;;0.40;0.40;;;11.30;99.90;;;;;;4858799;29;20241;-73
2023/11/04 14:40:30;;;;;;;0.45;0.45;;;11.30;99.90;;;;;;4859180;29;20208;-72
2023/11/04 14:42:57;;;;;;;0.65;0.65;;;11.30;99.90;;;;;;4859463;29;20219;-73
2023/11/04 14:45:24;;;;;;;0.60;0.60;;;11.30;99.90;;;;;;4851640;29;20686;-73
2023/11/04 14:47:51;;;;;;;0.40;0.40;;;11.30;99.90;;;;;;4851805;29;20717;-73
2023/11/04 14:50:18;;;;;;;1.43;0.40;;;11.30;99.90;;;;;;4852454;29;21261;-73
2023/11/04 14:52:45;;;;;;;0.65;0.65;;;11.20;99.90;;;;;;4859939;29;20837;-72
2023/11/04 14:55:11;;;;;;;0.40;0.40;;;11.30;99.90;;;;;;4858797;29;20260;-73
2023/11/04 14:57:41;;;;;;;0.50;0.50;;;11.30;99.90;;;;;;4858427;29;20250;-73
2023/11/04 15:00:09;;;;;;;1.38;0.88;;;11.20;99.90;;;;;;4851326;29;20215;-72
2023/11/04 15:02:36;;;;;;;0.70;0.70;;;11.30;99.90;;;;;;4855820;29;20222;-73
2023/11/04 15:05:03;;;;;;;0.70;0.70;;;11.20;99.90;;;;;;4851726;29;20219;-73
2023/11/04 15:07:29;;;;;;;0.40;0.40;;;11.20;99.90;;;;;;4853841;29;20221;-73
2023/11/04 15:09:57;;;;;;;2.78;0.50;;;11.20;99.90;;;;;;4855973;29;20222;-72
2023/11/04 15:12:24;;;;;;;0.77;0.77;;;11.20;99.90;;;;;;4858419;29;20219;-72
2023/11/04 15:14:52;;;;;;;0.60;0.60;;;11.20;99.90;;;;;;4855798;29;20222;-73
2023/11/04 15:17:19;;;;;;;0.82;0.82;;;11.20;99.90;;;;;;4855484;29;20239;-72
2023/11/04 15:19:45;;;;;;;2.75;0.70;;;11.20;99.90;;;;;;4855411;29;20231;-72
2023/11/04 15:22:12;;;;;;;0.52;0.52;;;11.20;99.90;;;;;;4852954;29;20211;-72
2023/11/04 15:24:39;;;;;;;2.60;0.68;;;11.10;99.90;;;;;;4854490;29;20207;-72
2023/11/04 15:27:06;;;;;;;0.80;0.80;;;11.10;99.90;;;;;;4852941;29;20239;-72
2023/11/04 15:29:32;;;;;;;0.70;0.70;;;11.10;99.90;;;;;;4857051;29;20220;-73
2023/11/04 15:32:00;;;;;;;1.15;0.80;;;11.10;99.90;;;;;;4855486;29;20223;-73
2023/11/04 15:34:27;;;;;;;3.22;0.90;;;11.00;99.90;;;;;;4856368;29;20222;-72
2023/11/04 15:36:54;;;;;;;1.05;0.80;;;11.00;99.90;;;;;;4851700;29;20250;-72
2023/11/04 15:39:21;;;;;;;0.90;0.90;;;11.00;99.90;;;;;;4851841;29;20216;-72
2023/11/04 15:41:48;;;;;;;1.00;0.93;;;11.00;99.90;;;;;;4854045;29;20211;-72
2023/11/04 15:44:15;;;;;;;0.85;0.85;;;11.00;99.90;;;;;;4854708;29;20211;-72
2023/11/04 15:46:45;;;;;;;0.70;0.70;;;10.90;99.90;;;;;;4852476;29;20219;-71
2023/11/04 15:49:13;;;;;;;0.90;0.90;;;10.90;99.90;;;;;;4851580;29;20223;-72
2023/11/04 15:51:40;;;;;;;1.20;1.20;;;10.90;99.90;;;;;;4853291;29;20232;-72
2023/11/04 15:54:07;;;;;;;1.10;0.93;;;10.90;99.90;;;;;;4854835;29;20308;-73
2023/11/04 15:56:35;;;;;;;1.80;0.85;;;10.90;99.90;;;;;;4853469;29;20367;-72
2023/11/04 15:59:02;;;;;;;0.95;0.90;;;10.90;99.90;;;;;;4854256;29;20573;-72
2023/11/04 16:01:29;;;;;;;2.30;2.13;;;10.80;99.90;;;;;;4853471;29;20304;-72
2023/11/04 16:03:55;;;;;;;0.77;0.77;;;10.80;99.90;;;;;;4852488;29;20675;-72
2023/11/04 16:06:23;;;;;;;0.73;0.73;;;10.70;99.90;;;;;;4854611;29;20226;-72
2023/11/04 16:08:50;;;;;;;1.45;0.90;;;10.70;99.90;;;;;;4854598;29;20215;-71
2023/11/04 16:11:17;;;;;;;1.05;1.05;;;10.70;99.90;;;;;;4847993;29;20236;-73
2023/11/04 16:13:45;;;;;;;1.02;1.02;;;10.70;99.90;;;;;;4849031;29;20227;-72
2023/11/04 16:16:12;;;;;;;0.65;0.65;;;10.70;99.90;;;;;;4857518;29;20251;-73
2023/11/04 16:18:39;;;;;;;0.70;0.47;;;10.60;99.90;;;;;;4853687;29;20212;-73
2023/11/04 16:21:06;;;;;;;0.68;0.68;;;10.60;99.90;;;;;;4858122;29;20306;-73
2023/11/04 16:23:34;;;;;;;0.80;0.80;;;10.60;99.90;;;;;;4840569;29;20456;-73
2023/11/04 16:26:01;;;;;;;2.63;1.50;;;10.60;99.90;;;;;;4840447;29;20267;-73
2023/11/04 16:28:28;;;;;;;0.50;0.50;;;10.60;99.90;;;;;;4853084;29;20218;-73
2023/11/04 16:30:55;;;;;;;0.70;0.70;;;10.60;99.90;;;;;;4855475;29;20210;-73
2023/11/04 16:33:23;;;;;;;0.80;0.80;;;10.50;99.90;;;;;;4856461;29;20299;-73
2023/11/04 16:35:49;;;;;;;0.73;0.73;;;10.50;99.90;;;;;;4840438;29;20315;-73
2023/11/04 16:38:16;;;;;;;0.50;0.50;;;10.50;99.90;;;;;;4856002;29;20607;-73
2023/11/04 16:40:44;;;;;;;1.35;1.25;;;10.50;99.90;;;;;;4858736;29;20215;-72
2023/11/04 16:43:11;;;;;;;2.05;1.95;;;10.50;99.90;;;;;;4852485;29;20230;-73
2023/11/04 16:45:38;;;;;;;0.80;0.80;;;10.40;99.90;;;;;;4848169;29;20242;-73
2023/11/04 16:48:05;;;;;;;0.80;0.80;;;10.40;99.90;;;;;;4844324;29;20203;-74
2023/11/04 16:50:31;;;;;;;0.50;0.50;;;10.40;99.90;;;;;;4858352;29;20360;-73
2023/11/04 16:52:58;;;;;;;0.95;0.95;;;10.30;99.90;;;;;;4857589;29;20212;-74
2023/11/04 16:55:25;;;;;;;1.23;1.23;;;10.30;99.90;;;;;;4852533;29;20225;-74
2023/11/04 16:57:53;;;;;;;0.60;0.60;;;10.30;99.90;;;;;;4858077;29;20248;-73
2023/11/04 17:00:20;;;;;;;0.40;0.40;;;10.30;99.90;;;;;;4851758;29;20210;-73
2023/11/04 17:02:47;;;;;;;1.10;1.10;;;10.30;99.90;;;;;;4854111;29;20217;-74
2023/11/04 17:05:13;;;;;;;1.05;0.55;;;10.30;99.90;;;;;;4843091;29;20226;-74
2023/11/04 17:07:40;;;;;;;2.05;1.10;;;10.30;99.90;;;;;;4857350;29;20225;-73
2023/11/04 17:10:08;;;;;;;1.10;1.10;;;10.30;99.90;;;;;;4851653;29;20215;-73
2023/11/04 17:12:35;;;;;;;0.45;0.45;;;10.20;99.90;;;;;;4856837;29;20658;-73
2023/11/04 17:15:05;;;;;;;0.60;0.60;;;10.30;99.90;;;;;;4850914;29;20224;-73
2023/11/04 17:17:31;;;;;;;0.50;0.50;;;10.30;99.90;;;;;;4856942;29;20239;-73
2023/11/04 17:19:58;;;;;;;1.70;0.88;;;10.30;99.90;;;;;;4858031;29;20241;-73
2023/11/04 17:22:25;;;;;;;0.63;0.63;;;10.30;99.90;;;;;;4858510;29;20211;-73
2023/11/04 17:24:52;;;;;;;0.65;0.65;;;10.30;99.90;;;;;;4860262;29;20642;-73
2023/11/04 17:27:19;;;;;;;0.60;0.60;;;10.30;99.90;;;;;;4860338;29;20239;-73
2023/11/04 17:29:45;;;;;;;0.50;0.50;;;10.30;99.90;;;;;;4859523;29;20485;-73
2023/11/04 17:32:13;;;;;;;0.47;0.47;;;10.20;99.90;;;;;;4857094;29;20216;-73
2023/11/04 17:34:41;;;;;;;1.42;0.82;;;10.20;99.90;;;;;;4860201;29;20213;-72
2023/11/04 17:37:08;;;;;;;0.65;0.65;;;10.00;99.90;;;;;;4857654;29;20232;-73
2023/11/04 17:39:35;;;;;;;0.50;0.50;;;9.90;99.90;;;;;;4859851;29;20212;-73
2023/11/04 17:42:02;;;;;;;1.10;1.05;;;9.70;99.90;;;;;;4859455;29;20219;-73
2023/11/04 17:44:29;;;;;;;1.15;0.80;;;9.60;99.90;;;;;;4859193;29;20669;-72
2023/11/04 17:46:55;;;;;;;2.70;1.33;;;9.40;99.90;;;;;;4861285;29;20282;-73
2023/11/04 17:49:24;;;;;;;0.70;0.70;;;9.30;99.90;;;;;;4857256;29;20212;-74
2023/11/04 17:51:51;;;;;;;0.63;0.63;;;9.20;99.90;;;;;;4858518;29;20269;-73